LRCL

Cluj-Napoca International Airport

Cluj-Napoca, Romania
TAF LRCL 220200Z 2203/2212 VRB04KT CAVOK
Issued Valid From Valid To
Sep-22 @ 02:00 UTC
(an hour ago)
Sep-22 @ 03:00 UTC
(26 minutes ago)
Sep-22 @ 12:00 UTC
(in 9 hours)
to
TAF LRCL 220200Z 2203/2212 VRB04KT CAVOK
Issued Sep-22 @ 02:00 UTC
(an hour ago)
Valid From Sep-22 @ 03:00 UTC
(26 minutes ago)
Valid To Sep-22 @ 12:00 UTC
(in 9 hours)
-